Terminal Aerodrome Forecast
Issued by NWS

Home | Current Version | Previous Version | Text Only | Print | Product List | Glossary Off
Versions: 1 2 3 4 5 6 7 8 9 10 11 12 13 14 15 16 17 18 19

000
FTUS43 KABR 050532
TAFPIR
TAF
KPIR 050532Z 0506/0606 12008KT P6SM SCT100 BKN250
     FM051400 12015KT P6SM BKN100
     FM051800 13015G25KT P6SM OVC040=

USA.gov is the U.S. government's official web portal to all federal, state and local government web resources and services.